sensor_id;sensor_type;location;lat;lon;timestamp;P1;durP1;ratioP1;P2;durP2;ratioP2
70806;SDS011;58882;52.170;5.386;2023-07-31T00:01:43;1.67;;;0.90;;
70806;SDS011;58882;52.170;5.386;2023-07-31T00:04:10;1.17;;;0.80;;
70806;SDS011;58882;52.170;5.386;2023-07-31T00:06:37;2.95;;;1.00;;
70806;SDS011;58882;52.170;5.386;2023-07-31T00:09:04;2.63;;;1.02;;
70806;SDS011;58882;52.170;5.386;2023-07-31T00:11:31;3.10;;;1.00;;
70806;SDS011;58882;52.170;5.386;2023-07-31T00:13:58;2.00;;;0.90;;
70806;SDS011;58882;52.170;5.386;2023-07-31T00:16:24;1.10;;;0.77;;
70806;SDS011;58882;52.170;5.386;2023-07-31T00:18:52;1.98;;;0.90;;
70806;SDS011;58882;52.170;5.386;2023-07-31T00:21:18;3.17;;;0.95;;
70806;SDS011;58882;52.170;5.386;2023-07-31T00:23:45;2.70;;;0.80;;
70806;SDS011;58882;52.170;5.386;2023-07-31T00:26:12;3.83;;;0.90;;
70806;SDS011;58882;52.170;5.386;2023-07-31T00:28:39;2.08;;;0.80;;
70806;SDS011;58882;52.170;5.386;2023-07-31T00:31:06;8.82;;;1.10;;
70806;SDS011;58882;52.170;5.386;2023-07-31T00:33:34;3.58;;;1.20;;
70806;SDS011;58882;52.170;5.386;2023-07-31T00:36:02;4.97;;;1.10;;
70806;SDS011;58882;52.170;5.386;2023-07-31T00:38:29;3.00;;;1.30;;
70806;SDS011;58882;52.170;5.386;2023-07-31T00:40:56;2.72;;;1.10;;
70806;SDS011;58882;52.170;5.386;2023-07-31T00:43:24;4.30;;;1.60;;
70806;SDS011;58882;52.170;5.386;2023-07-31T00:45:51;6.15;;;1.45;;
70806;SDS011;58882;52.170;5.386;2023-07-31T00:48:18;4.47;;;1.30;;
70806;SDS011;58882;52.170;5.386;2023-07-31T00:50:45;5.75;;;1.75;;
70806;SDS011;58882;52.170;5.386;2023-07-31T00:53:12;4.85;;;1.90;;
70806;SDS011;58882;52.170;5.386;2023-07-31T00:55:39;8.35;;;1.85;;
70806;SDS011;58882;52.170;5.386;2023-07-31T00:58:06;6.30;;;1.70;;
70806;SDS011;58882;52.170;5.386;2023-07-31T01:00:33;9.05;;;1.90;;
70806;SDS011;58882;52.170;5.386;2023-07-31T01:03:00;8.88;;;2.20;;
70806;SDS011;58882;52.170;5.386;2023-07-31T01:05:49;9.05;;;2.67;;
70806;SDS011;58882;52.170;5.386;2023-07-31T01:10:55;10.32;;;3.13;;
70806;SDS011;58882;52.170;5.386;2023-07-31T01:13:26;7.65;;;2.80;;
70806;SDS011;58882;52.170;5.386;2023-07-31T01:15:54;10.45;;;2.50;;
70806;SDS011;58882;52.170;5.386;2023-07-31T01:18:21;9.98;;;3.00;;
70806;SDS011;58882;52.170;5.386;2023-07-31T01:20:52;9.88;;;2.63;;
70806;SDS011;58882;52.170;5.386;2023-07-31T01:31:23;7.88;;;2.20;;
70806;SDS011;58882;52.170;5.386;2023-07-31T01:33:53;6.50;;;2.30;;
70806;SDS011;58882;52.170;5.386;2023-07-31T01:36:24;6.93;;;2.42;;
70806;SDS011;58882;52.170;5.386;2023-07-31T01:38:51;5.32;;;1.98;;
70806;SDS011;58882;52.170;5.386;2023-07-31T01:41:18;5.65;;;1.83;;
70806;SDS011;58882;52.170;5.386;2023-07-31T01:43:46;5.45;;;2.20;;
70806;SDS011;58882;52.170;5.386;2023-07-31T01:46:13;6.03;;;1.73;;
70806;SDS011;58882;52.170;5.386;2023-07-31T01:48:40;8.70;;;2.17;;
70806;SDS011;58882;52.170;5.386;2023-07-31T01:51:07;6.47;;;2.08;;
70806;SDS011;58882;52.170;5.386;2023-07-31T01:53:35;5.15;;;2.00;;
70806;SDS011;58882;52.170;5.386;2023-07-31T01:56:02;7.82;;;2.60;;
70806;SDS011;58882;52.170;5.386;2023-07-31T01:58:29;6.80;;;2.28;;
70806;SDS011;58882;52.170;5.386;2023-07-31T02:00:56;9.88;;;3.22;;
70806;SDS011;58882;52.170;5.386;2023-07-31T02:03:23;10.18;;;2.92;;
70806;SDS011;58882;52.170;5.386;2023-07-31T02:05:51;14.45;;;3.97;;
70806;SDS011;58882;52.170;5.386;2023-07-31T02:08:21;14.63;;;3.72;;
70806;SDS011;58882;52.170;5.386;2023-07-31T02:10:47;12.68;;;3.75;;
70806;SDS011;58882;52.170;5.386;2023-07-31T02:13:14;12.25;;;3.80;;
70806;SDS011;58882;52.170;5.386;2023-07-31T02:15:41;17.08;;;4.43;;
70806;SDS011;58882;52.170;5.386;2023-07-31T02:18:08;11.23;;;3.70;;
70806;SDS011;58882;52.170;5.386;2023-07-31T02:20:35;11.82;;;3.33;;
70806;SDS011;58882;52.170;5.386;2023-07-31T02:23:02;13.00;;;3.47;;
70806;SDS011;58882;52.170;5.386;2023-07-31T02:25:29;12.18;;;3.70;;
70806;SDS011;58882;52.170;5.386;2023-07-31T02:27:56;13.23;;;3.95;;
70806;SDS011;58882;52.170;5.386;2023-07-31T02:30:23;11.80;;;3.45;;
70806;SDS011;58882;52.170;5.386;2023-07-31T02:32:49;14.40;;;3.80;;
70806;SDS011;58882;52.170;5.386;2023-07-31T02:35:16;16.08;;;4.03;;
70806;SDS011;58882;52.170;5.386;2023-07-31T02:37:45;15.02;;;3.50;;
70806;SDS011;58882;52.170;5.386;2023-07-31T02:40:12;14.00;;;4.30;;
70806;SDS011;58882;52.170;5.386;2023-07-31T02:42:39;14.25;;;4.03;;
70806;SDS011;58882;52.170;5.386;2023-07-31T02:45:06;13.82;;;4.03;;
70806;SDS011;58882;52.170;5.386;2023-07-31T02:47:34;13.90;;;3.83;;
70806;SDS011;58882;52.170;5.386;2023-07-31T02:50:02;16.10;;;3.85;;
70806;SDS011;58882;52.170;5.386;2023-07-31T02:52:29;17.05;;;4.38;;
70806;SDS011;58882;52.170;5.386;2023-07-31T02:54:56;17.85;;;3.80;;
70806;SDS011;58882;52.170;5.386;2023-07-31T02:57:23;12.45;;;4.13;;
70806;SDS011;58882;52.170;5.386;2023-07-31T02:59:50;14.73;;;3.58;;
70806;SDS011;58882;52.170;5.386;2023-07-31T03:02:17;16.13;;;3.72;;
70806;SDS011;58882;52.170;5.386;2023-07-31T03:04:44;14.02;;;3.50;;
70806;SDS011;58882;52.170;5.386;2023-07-31T03:07:11;14.98;;;4.10;;
70806;SDS011;58882;52.170;5.386;2023-07-31T03:09:38;12.43;;;3.63;;
70806;SDS011;58882;52.170;5.386;2023-07-31T03:12:05;12.85;;;4.03;;
70806;SDS011;58882;52.170;5.386;2023-07-31T03:14:32;16.95;;;4.57;;
70806;SDS011;58882;52.170;5.386;2023-07-31T03:16:59;12.93;;;3.60;;
70806;SDS011;58882;52.170;5.386;2023-07-31T03:19:26;19.80;;;4.32;;
70806;SDS011;58882;52.170;5.386;2023-07-31T03:21:52;11.63;;;3.67;;
70806;SDS011;58882;52.170;5.386;2023-07-31T03:24:19;19.38;;;5.60;;
70806;SDS011;58882;52.170;5.386;2023-07-31T03:26:46;12.52;;;4.60;;
70806;SDS011;58882;52.170;5.386;2023-07-31T03:29:13;14.48;;;4.15;;
70806;SDS011;58882;52.170;5.386;2023-07-31T03:31:40;16.02;;;3.90;;
70806;SDS011;58882;52.170;5.386;2023-07-31T03:34:07;15.80;;;4.57;;
70806;SDS011;58882;52.170;5.386;2023-07-31T03:36:34;14.95;;;4.65;;
70806;SDS011;58882;52.170;5.386;2023-07-31T03:39:00;20.63;;;4.75;;
70806;SDS011;58882;52.170;5.386;2023-07-31T03:41:27;14.65;;;4.28;;
70806;SDS011;58882;52.170;5.386;2023-07-31T03:43:55;15.75;;;4.57;;
70806;SDS011;58882;52.170;5.386;2023-07-31T03:46:24;15.45;;;4.30;;
70806;SDS011;58882;52.170;5.386;2023-07-31T03:48:51;18.83;;;5.22;;
70806;SDS011;58882;52.170;5.386;2023-07-31T03:51:18;17.98;;;4.80;;
70806;SDS011;58882;52.170;5.386;2023-07-31T03:53:46;29.40;;;5.18;;
70806;SDS011;58882;52.170;5.386;2023-07-31T03:56:13;15.55;;;5.05;;
70806;SDS011;58882;52.170;5.386;2023-07-31T03:58:40;16.15;;;4.65;;
70806;SDS011;58882;52.170;5.386;2023-07-31T04:01:06;18.45;;;4.75;;
70806;SDS011;58882;52.170;5.386;2023-07-31T04:03:33;18.05;;;4.63;;
70806;SDS011;58882;52.170;5.386;2023-07-31T04:06:00;17.50;;;4.75;;
70806;SDS011;58882;52.170;5.386;2023-07-31T04:08:27;15.40;;;4.80;;
70806;SDS011;58882;52.170;5.386;2023-07-31T04:10:54;19.67;;;4.30;;
70806;SDS011;58882;52.170;5.386;2023-07-31T04:13:21;18.60;;;4.53;;
70806;SDS011;58882;52.170;5.386;2023-07-31T04:15:51;16.50;;;4.63;;
70806;SDS011;58882;52.170;5.386;2023-07-31T04:18:18;13.85;;;4.38;;
70806;SDS011;58882;52.170;5.386;2023-07-31T04:20:45;18.33;;;4.85;;
70806;SDS011;58882;52.170;5.386;2023-07-31T04:23:11;15.20;;;4.32;;
70806;SDS011;58882;52.170;5.386;2023-07-31T04:25:38;13.80;;;4.60;;
70806;SDS011;58882;52.170;5.386;2023-07-31T04:28:05;13.68;;;4.20;;
70806;SDS011;58882;52.170;5.386;2023-07-31T04:30:32;20.88;;;4.53;;
70806;SDS011;58882;52.170;5.386;2023-07-31T04:32:59;14.30;;;4.35;;
70806;SDS011;58882;52.170;5.386;2023-07-31T04:35:26;13.02;;;4.68;;
70806;SDS011;58882;52.170;5.386;2023-07-31T04:37:53;13.40;;;4.45;;
70806;SDS011;58882;52.170;5.386;2023-07-31T04:40:20;18.55;;;4.95;;
70806;SDS011;58882;52.170;5.386;2023-07-31T04:42:47;18.33;;;5.22;;
70806;SDS011;58882;52.170;5.386;2023-07-31T04:45:14;22.27;;;4.50;;
70806;SDS011;58882;52.170;5.386;2023-07-31T04:47:41;19.90;;;4.68;;
70806;SDS011;58882;52.170;5.386;2023-07-31T04:50:08;16.25;;;4.45;;
70806;SDS011;58882;52.170;5.386;2023-07-31T04:52:35;17.27;;;5.13;;
70806;SDS011;58882;52.170;5.386;2023-07-31T04:55:02;15.18;;;4.68;;
70806;SDS011;58882;52.170;5.386;2023-07-31T04:57:29;14.88;;;4.38;;
70806;SDS011;58882;52.170;5.386;2023-07-31T04:59:56;13.57;;;4.53;;
70806;SDS011;58882;52.170;5.386;2023-07-31T05:02:23;13.80;;;4.45;;
70806;SDS011;58882;52.170;5.386;2023-07-31T05:04:51;12.25;;;4.07;;
70806;SDS011;58882;52.170;5.386;2023-07-31T05:07:17;10.75;;;3.72;;
70806;SDS011;58882;52.170;5.386;2023-07-31T05:09:44;16.10;;;4.65;;
70806;SDS011;58882;52.170;5.386;2023-07-31T05:12:11;13.38;;;4.13;;
70806;SDS011;58882;52.170;5.386;2023-07-31T05:14:38;12.90;;;4.03;;
70806;SDS011;58882;52.170;5.386;2023-07-31T05:17:05;13.30;;;3.97;;
70806;SDS011;58882;52.170;5.386;2023-07-31T05:19:32;10.75;;;4.20;;
70806;SDS011;58882;52.170;5.386;2023-07-31T05:21:59;11.50;;;4.18;;
70806;SDS011;58882;52.170;5.386;2023-07-31T05:24:25;9.48;;;3.75;;
70806;SDS011;58882;52.170;5.386;2023-07-31T05:26:52;11.88;;;3.97;;
70806;SDS011;58882;52.170;5.386;2023-07-31T05:29:19;21.58;;;4.18;;
70806;SDS011;58882;52.170;5.386;2023-07-31T05:31:46;11.00;;;4.07;;
70806;SDS011;58882;52.170;5.386;2023-07-31T05:34:13;11.45;;;4.05;;
70806;SDS011;58882;52.170;5.386;2023-07-31T05:36:40;10.40;;;3.70;;
70806;SDS011;58882;52.170;5.386;2023-07-31T05:39:07;12.82;;;4.15;;
70806;SDS011;58882;52.170;5.386;2023-07-31T05:41:35;10.35;;;4.05;;
70806;SDS011;58882;52.170;5.386;2023-07-31T05:44:02;10.40;;;4.03;;
70806;SDS011;58882;52.170;5.386;2023-07-31T05:46:29;7.78;;;3.20;;
70806;SDS011;58882;52.170;5.386;2023-07-31T05:48:57;9.82;;;3.70;;
70806;SDS011;58882;52.170;5.386;2023-07-31T05:51:27;9.25;;;3.45;;
70806;SDS011;58882;52.170;5.386;2023-07-31T05:53:54;8.88;;;3.33;;
70806;SDS011;58882;52.170;5.386;2023-07-31T05:56:21;9.75;;;3.50;;
70806;SDS011;58882;52.170;5.386;2023-07-31T05:58:48;8.75;;;3.20;;
70806;SDS011;58882;52.170;5.386;2023-07-31T06:01:16;8.70;;;3.13;;
70806;SDS011;58882;52.170;5.386;2023-07-31T06:03:44;9.75;;;3.28;;
70806;SDS011;58882;52.170;5.386;2023-07-31T06:06:11;8.48;;;3.10;;
70806;SDS011;58882;52.170;5.386;2023-07-31T06:11:07;9.90;;;2.60;;
70806;SDS011;58882;52.170;5.386;2023-07-31T06:13:35;6.97;;;2.70;;
70806;SDS011;58882;52.170;5.386;2023-07-31T06:16:02;8.07;;;2.92;;
70806;SDS011;58882;52.170;5.386;2023-07-31T06:18:32;8.65;;;3.00;;
70806;SDS011;58882;52.170;5.386;2023-07-31T06:20:59;10.27;;;2.90;;
70806;SDS011;58882;52.170;5.386;2023-07-31T06:23:26;7.55;;;2.78;;
70806;SDS011;58882;52.170;5.386;2023-07-31T06:25:53;9.25;;;3.13;;
70806;SDS011;58882;52.170;5.386;2023-07-31T06:28:19;7.53;;;2.72;;
70806;SDS011;58882;52.170;5.386;2023-07-31T06:30:46;6.15;;;2.55;;
70806;SDS011;58882;52.170;5.386;2023-07-31T06:33:13;7.55;;;2.85;;
70806;SDS011;58882;52.170;5.386;2023-07-31T06:35:40;8.80;;;3.30;;
70806;SDS011;58882;52.170;5.386;2023-07-31T06:38:07;6.35;;;2.40;;
70806;SDS011;58882;52.170;5.386;2023-07-31T06:40:34;9.43;;;2.67;;
70806;SDS011;58882;52.170;5.386;2023-07-31T06:43:01;7.20;;;2.50;;
70806;SDS011;58882;52.170;5.386;2023-07-31T06:45:36;6.72;;;2.72;;
70806;SDS011;58882;52.170;5.386;2023-07-31T06:48:04;6.22;;;2.33;;
70806;SDS011;58882;52.170;5.386;2023-07-31T06:50:31;5.35;;;2.38;;
70806;SDS011;58882;52.170;5.386;2023-07-31T06:52:58;7.72;;;2.50;;
70806;SDS011;58882;52.170;5.386;2023-07-31T06:55:25;6.22;;;2.13;;
70806;SDS011;58882;52.170;5.386;2023-07-31T06:57:53;6.30;;;2.55;;
70806;SDS011;58882;52.170;5.386;2023-07-31T07:00:21;5.80;;;2.47;;
70806;SDS011;58882;52.170;5.386;2023-07-31T07:02:49;7.82;;;2.63;;
70806;SDS011;58882;52.170;5.386;2023-07-31T07:05:16;7.97;;;2.40;;
70806;SDS011;58882;52.170;5.386;2023-07-31T07:07:44;6.45;;;2.40;;
70806;SDS011;58882;52.170;5.386;2023-07-31T07:10:11;6.47;;;2.38;;
70806;SDS011;58882;52.170;5.386;2023-07-31T07:12:38;6.65;;;2.28;;
70806;SDS011;58882;52.170;5.386;2023-07-31T07:15:05;5.57;;;2.20;;
70806;SDS011;58882;52.170;5.386;2023-07-31T07:17:32;6.10;;;2.08;;
70806;SDS011;58882;52.170;5.386;2023-07-31T07:19:59;6.07;;;2.38;;
70806;SDS011;58882;52.170;5.386;2023-07-31T07:22:26;5.85;;;2.00;;
70806;SDS011;58882;52.170;5.386;2023-07-31T07:24:55;4.82;;;2.03;;
70806;SDS011;58882;52.170;5.386;2023-07-31T07:27:22;4.65;;;1.80;;
70806;SDS011;58882;52.170;5.386;2023-07-31T07:29:52;5.50;;;2.20;;
70806;SDS011;58882;52.170;5.386;2023-07-31T07:32:20;6.05;;;2.10;;
70806;SDS011;58882;52.170;5.386;2023-07-31T07:34:47;4.43;;;2.10;;
70806;SDS011;58882;52.170;5.386;2023-07-31T07:37:15;4.28;;;2.15;;
70806;SDS011;58882;52.170;5.386;2023-07-31T07:39:42;5.53;;;2.00;;
70806;SDS011;58882;52.170;5.386;2023-07-31T07:42:10;5.97;;;2.13;;
70806;SDS011;58882;52.170;5.386;2023-07-31T07:44:36;4.97;;;1.95;;
70806;SDS011;58882;52.170;5.386;2023-07-31T07:47:03;4.10;;;1.80;;
70806;SDS011;58882;52.170;5.386;2023-07-31T07:49:33;4.95;;;1.98;;
70806;SDS011;58882;52.170;5.386;2023-07-31T07:52:01;6.05;;;2.00;;
70806;SDS011;58882;52.170;5.386;2023-07-31T07:54:29;2.88;;;1.83;;
70806;SDS011;58882;52.170;5.386;2023-07-31T07:56:57;4.57;;;2.10;;
70806;SDS011;58882;52.170;5.386;2023-07-31T07:59:24;4.80;;;1.85;;
70806;SDS011;58882;52.170;5.386;2023-07-31T08:01:51;5.97;;;1.85;;
70806;SDS011;58882;52.170;5.386;2023-07-31T08:04:18;7.10;;;1.90;;
70806;SDS011;58882;52.170;5.386;2023-07-31T08:06:45;5.30;;;1.98;;
70806;SDS011;58882;52.170;5.386;2023-07-31T08:09:11;4.15;;;1.60;;
70806;SDS011;58882;52.170;5.386;2023-07-31T08:11:38;4.88;;;1.90;;
70806;SDS011;58882;52.170;5.386;2023-07-31T08:14:05;4.60;;;1.67;;
70806;SDS011;58882;52.170;5.386;2023-07-31T08:16:32;4.95;;;1.90;;
70806;SDS011;58882;52.170;5.386;2023-07-31T08:18:59;4.60;;;1.67;;
70806;SDS011;58882;52.170;5.386;2023-07-31T08:21:26;3.60;;;1.40;;
70806;SDS011;58882;52.170;5.386;2023-07-31T08:23:53;3.38;;;1.40;;
70806;SDS011;58882;52.170;5.386;2023-07-31T08:26:20;4.28;;;1.50;;
70806;SDS011;58882;52.170;5.386;2023-07-31T08:28:47;3.53;;;1.40;;
70806;SDS011;58882;52.170;5.386;2023-07-31T08:31:14;2.75;;;1.40;;
70806;SDS011;58882;52.170;5.386;2023-07-31T08:33:41;2.90;;;1.40;;
70806;SDS011;58882;52.170;5.386;2023-07-31T08:36:08;2.80;;;1.52;;
70806;SDS011;58882;52.170;5.386;2023-07-31T08:38:35;5.07;;;1.60;;
70806;SDS011;58882;52.170;5.386;2023-07-31T08:41:04;2.78;;;1.33;;
70806;SDS011;58882;52.170;5.386;2023-07-31T08:43:31;2.90;;;1.40;;
70806;SDS011;58882;52.170;5.386;2023-07-31T08:45:59;4.03;;;1.40;;
70806;SDS011;58882;52.170;5.386;2023-07-31T08:48:28;3.30;;;1.45;;
70806;SDS011;58882;52.170;5.386;2023-07-31T08:50:57;4.25;;;1.20;;
70806;SDS011;58882;52.170;5.386;2023-07-31T08:53:24;3.13;;;1.15;;
70806;SDS011;58882;52.170;5.386;2023-07-31T08:55:52;3.17;;;1.10;;
70806;SDS011;58882;52.170;5.386;2023-07-31T08:58:22;3.17;;;1.20;;
70806;SDS011;58882;52.170;5.386;2023-07-31T09:00:50;2.17;;;1.10;;
70806;SDS011;58882;52.170;5.386;2023-07-31T09:03:20;2.92;;;1.08;;
70806;SDS011;58882;52.170;5.386;2023-07-31T09:05:49;2.35;;;1.17;;
70806;SDS011;58882;52.170;5.386;2023-07-31T09:08:18;1.63;;;1.00;;
70806;SDS011;58882;52.170;5.386;2023-07-31T09:10:46;2.08;;;0.90;;
70806;SDS011;58882;52.170;5.386;2023-07-31T09:13:16;2.92;;;1.13;;
70806;SDS011;58882;52.170;5.386;2023-07-31T09:15:44;2.13;;;1.00;;
70806;SDS011;58882;52.170;5.386;2023-07-31T09:18:12;3.40;;;1.25;;
70806;SDS011;58882;52.170;5.386;2023-07-31T09:20:43;1.98;;;1.02;;
70806;SDS011;58882;52.170;5.386;2023-07-31T09:23:11;2.33;;;1.00;;
70806;SDS011;58882;52.170;5.386;2023-07-31T09:25:39;2.08;;;0.90;;
70806;SDS011;58882;52.170;5.386;2023-07-31T09:28:10;1.80;;;0.98;;
70806;SDS011;58882;52.170;5.386;2023-07-31T09:30:45;2.35;;;0.90;;
70806;SDS011;58882;52.170;5.386;2023-07-31T09:33:17;3.65;;;1.20;;
70806;SDS011;58882;52.170;5.386;2023-07-31T09:35:44;3.35;;;1.08;;
70806;SDS011;58882;52.170;5.386;2023-07-31T09:38:14;1.58;;;0.93;;
70806;SDS011;58882;52.170;5.386;2023-07-31T09:40:44;1.45;;;1.00;;
70806;SDS011;58882;52.170;5.386;2023-07-31T09:43:12;2.28;;;1.10;;
70806;SDS011;58882;52.170;5.386;2023-07-31T09:45:43;4.50;;;1.10;;
70806;SDS011;58882;52.170;5.386;2023-07-31T09:48:15;1.65;;;1.00;;
70806;SDS011;58882;52.170;5.386;2023-07-31T09:50:46;1.20;;;0.90;;
70806;SDS011;58882;52.170;5.386;2023-07-31T09:53:17;3.08;;;1.20;;
70806;SDS011;58882;52.170;5.386;2023-07-31T09:55:44;1.98;;;1.10;;
70806;SDS011;58882;52.170;5.386;2023-07-31T09:58:12;1.67;;;0.90;;
70806;SDS011;58882;52.170;5.386;2023-07-31T10:00:39;3.05;;;1.20;;
70806;SDS011;58882;52.170;5.386;2023-07-31T10:03:08;2.25;;;1.10;;
70806;SDS011;58882;52.170;5.386;2023-07-31T10:08:09;2.53;;;1.10;;
70806;SDS011;58882;52.170;5.386;2023-07-31T10:10:37;1.60;;;1.00;;
70806;SDS011;58882;52.170;5.386;2023-07-31T10:13:09;4.45;;;1.50;;
70806;SDS011;58882;52.170;5.386;2023-07-31T10:15:36;2.45;;;1.15;;
70806;SDS011;58882;52.170;5.386;2023-07-31T10:18:05;3.60;;;1.10;;
70806;SDS011;58882;52.170;5.386;2023-07-31T10:20:33;3.60;;;1.30;;
70806;SDS011;58882;52.170;5.386;2023-07-31T10:23:01;2.60;;;1.20;;
70806;SDS011;58882;52.170;5.386;2023-07-31T10:25:29;2.47;;;1.30;;
70806;SDS011;58882;52.170;5.386;2023-07-31T10:27:56;2.80;;;1.10;;
70806;SDS011;58882;52.170;5.386;2023-07-31T10:30:28;2.35;;;1.35;;
70806;SDS011;58882;52.170;5.386;2023-07-31T10:32:57;3.20;;;1.27;;
70806;SDS011;58882;52.170;5.386;2023-07-31T10:35:24;3.65;;;1.45;;
70806;SDS011;58882;52.170;5.386;2023-07-31T10:37:51;2.30;;;1.38;;
70806;SDS011;58882;52.170;5.386;2023-07-31T10:40:19;3.40;;;1.48;;
70806;SDS011;58882;52.170;5.386;2023-07-31T10:42:52;3.03;;;1.42;;
70806;SDS011;58882;52.170;5.386;2023-07-31T10:45:32;4.72;;;1.48;;
70806;SDS011;58882;52.170;5.386;2023-07-31T10:48:00;3.55;;;1.55;;
70806;SDS011;58882;52.170;5.386;2023-07-31T10:50:32;3.28;;;1.52;;
70806;SDS011;58882;52.170;5.386;2023-07-31T10:53:03;4.43;;;1.85;;
70806;SDS011;58882;52.170;5.386;2023-07-31T10:55:31;4.40;;;1.70;;
70806;SDS011;58882;52.170;5.386;2023-07-31T10:58:06;5.20;;;1.85;;
70806;SDS011;58882;52.170;5.386;2023-07-31T11:00:38;3.90;;;1.70;;
70806;SDS011;58882;52.170;5.386;2023-07-31T11:03:17;4.70;;;1.75;;
70806;SDS011;58882;52.170;5.386;2023-07-31T11:08:31;3.60;;;1.80;;
70806;SDS011;58882;52.170;5.386;2023-07-31T11:15:55;4.30;;;1.95;;
70806;SDS011;58882;52.170;5.386;2023-07-31T11:18:22;3.58;;;1.83;;
70806;SDS011;58882;52.170;5.386;2023-07-31T11:20:49;3.40;;;1.83;;
70806;SDS011;58882;52.170;5.386;2023-07-31T11:23:17;3.80;;;1.95;;
70806;SDS011;58882;52.170;5.386;2023-07-31T11:25:45;4.00;;;2.17;;
70806;SDS011;58882;52.170;5.386;2023-07-31T11:28:13;3.38;;;1.90;;
70806;SDS011;58882;52.170;5.386;2023-07-31T11:30:41;4.07;;;1.85;;
70806;SDS011;58882;52.170;5.386;2023-07-31T11:33:10;2.22;;;1.45;;
70806;SDS011;58882;52.170;5.386;2023-07-31T11:35:45;2.92;;;1.60;;
70806;SDS011;58882;52.170;5.386;2023-07-31T11:38:21;3.53;;;1.60;;
70806;SDS011;58882;52.170;5.386;2023-07-31T11:40:53;3.90;;;1.90;;
70806;SDS011;58882;52.170;5.386;2023-07-31T11:43:21;3.90;;;1.90;;
70806;SDS011;58882;52.170;5.386;2023-07-31T11:45:49;3.47;;;1.70;;
70806;SDS011;58882;52.170;5.386;2023-07-31T11:48:27;5.15;;;1.67;;
70806;SDS011;58882;52.170;5.386;2023-07-31T11:50:58;2.63;;;1.60;;
70806;SDS011;58882;52.170;5.386;2023-07-31T11:56:02;5.25;;;1.85;;
70806;SDS011;58882;52.170;5.386;2023-07-31T11:58:31;2.92;;;1.65;;
70806;SDS011;58882;52.170;5.386;2023-07-31T12:03:26;5.40;;;1.80;;
70806;SDS011;58882;52.170;5.386;2023-07-31T12:05:54;3.55;;;1.63;;
70806;SDS011;58882;52.170;5.386;2023-07-31T12:08:21;4.03;;;1.73;;
70806;SDS011;58882;52.170;5.386;2023-07-31T12:10:50;2.50;;;1.50;;
70806;SDS011;58882;52.170;5.386;2023-07-31T12:13:22;3.35;;;1.70;;
70806;SDS011;58882;52.170;5.386;2023-07-31T12:15:54;4.03;;;1.80;;
70806;SDS011;58882;52.170;5.386;2023-07-31T12:18:26;3.40;;;1.77;;
70806;SDS011;58882;52.170;5.386;2023-07-31T12:20:54;3.90;;;1.90;;
70806;SDS011;58882;52.170;5.386;2023-07-31T12:23:27;4.47;;;1.88;;
70806;SDS011;58882;52.170;5.386;2023-07-31T12:28:50;3.65;;;2.03;;
70806;SDS011;58882;52.170;5.386;2023-07-31T12:31:21;3.38;;;1.65;;
70806;SDS011;58882;52.170;5.386;2023-07-31T12:33:50;3.88;;;1.95;;
70806;SDS011;58882;52.170;5.386;2023-07-31T12:36:19;3.25;;;1.70;;
70806;SDS011;58882;52.170;5.386;2023-07-31T12:38:47;4.30;;;2.05;;
70806;SDS011;58882;52.170;5.386;2023-07-31T12:41:15;3.25;;;1.70;;
70806;SDS011;58882;52.170;5.386;2023-07-31T12:43:43;3.83;;;1.73;;
70806;SDS011;58882;52.170;5.386;2023-07-31T12:46:11;4.90;;;1.90;;
70806;SDS011;58882;52.170;5.386;2023-07-31T12:48:38;4.57;;;2.00;;
70806;SDS011;58882;52.170;5.386;2023-07-31T12:51:05;3.45;;;1.90;;
70806;SDS011;58882;52.170;5.386;2023-07-31T12:53:33;4.38;;;1.60;;
70806;SDS011;58882;52.170;5.386;2023-07-31T12:56:01;3.97;;;1.80;;
70806;SDS011;58882;52.170;5.386;2023-07-31T12:58:28;3.65;;;1.92;;
70806;SDS011;58882;52.170;5.386;2023-07-31T13:00:55;3.80;;;1.67;;
70806;SDS011;58882;52.170;5.386;2023-07-31T13:03:22;3.65;;;1.90;;
70806;SDS011;58882;52.170;5.386;2023-07-31T13:05:49;4.20;;;1.88;;
70806;SDS011;58882;52.170;5.386;2023-07-31T13:08:16;4.90;;;1.73;;
70806;SDS011;58882;52.170;5.386;2023-07-31T13:10:44;2.60;;;1.60;;
70806;SDS011;58882;52.170;5.386;2023-07-31T13:13:11;4.10;;;2.00;;
70806;SDS011;58882;52.170;5.386;2023-07-31T13:15:38;2.55;;;1.65;;
70806;SDS011;58882;52.170;5.386;2023-07-31T13:18:04;3.03;;;1.65;;
70806;SDS011;58882;52.170;5.386;2023-07-31T13:20:31;3.28;;;1.83;;
70806;SDS011;58882;52.170;5.386;2023-07-31T13:22:58;3.63;;;1.98;;
70806;SDS011;58882;52.170;5.386;2023-07-31T13:25:25;3.47;;;1.90;;
70806;SDS011;58882;52.170;5.386;2023-07-31T13:27:52;3.30;;;1.70;;
70806;SDS011;58882;52.170;5.386;2023-07-31T13:30:18;4.25;;;1.90;;
70806;SDS011;58882;52.170;5.386;2023-07-31T13:32:45;3.53;;;1.80;;
70806;SDS011;58882;52.170;5.386;2023-07-31T13:35:12;4.45;;;1.70;;
70806;SDS011;58882;52.170;5.386;2023-07-31T13:37:39;3.38;;;1.77;;
70806;SDS011;58882;52.170;5.386;2023-07-31T13:40:06;3.92;;;1.70;;
70806;SDS011;58882;52.170;5.386;2023-07-31T13:42:34;4.25;;;1.80;;
70806;SDS011;58882;52.170;5.386;2023-07-31T13:45:00;4.13;;;1.90;;
70806;SDS011;58882;52.170;5.386;2023-07-31T13:47:32;3.03;;;1.70;;
70806;SDS011;58882;52.170;5.386;2023-07-31T13:49:59;2.72;;;1.60;;
70806;SDS011;58882;52.170;5.386;2023-07-31T13:52:26;2.83;;;1.65;;
70806;SDS011;58882;52.170;5.386;2023-07-31T13:54:53;3.08;;;1.67;;
70806;SDS011;58882;52.170;5.386;2023-07-31T13:57:19;3.00;;;1.60;;
70806;SDS011;58882;52.170;5.386;2023-07-31T13:59:46;2.95;;;1.80;;
70806;SDS011;58882;52.170;5.386;2023-07-31T14:02:13;2.85;;;1.70;;
70806;SDS011;58882;52.170;5.386;2023-07-31T14:04:41;2.28;;;1.38;;
70806;SDS011;58882;52.170;5.386;2023-07-31T14:07:08;3.72;;;1.60;;
70806;SDS011;58882;52.170;5.386;2023-07-31T14:09:35;3.00;;;1.40;;
70806;SDS011;58882;52.170;5.386;2023-07-31T14:12:02;2.67;;;1.50;;
70806;SDS011;58882;52.170;5.386;2023-07-31T14:14:29;1.83;;;1.30;;
70806;SDS011;58882;52.170;5.386;2023-07-31T14:16:56;3.25;;;1.33;;
70806;SDS011;58882;52.170;5.386;2023-07-31T14:19:23;3.00;;;1.20;;
70806;SDS011;58882;52.170;5.386;2023-07-31T14:21:51;1.48;;;1.20;;
70806;SDS011;58882;52.170;5.386;2023-07-31T14:24:35;2.42;;;1.33;;
70806;SDS011;58882;52.170;5.386;2023-07-31T14:27:02;2.40;;;1.30;;
70806;SDS011;58882;52.170;5.386;2023-07-31T14:29:31;2.35;;;1.15;;
70806;SDS011;58882;52.170;5.386;2023-07-31T14:31:58;2.15;;;1.30;;
70806;SDS011;58882;52.170;5.386;2023-07-31T14:34:26;1.90;;;1.00;;
70806;SDS011;58882;52.170;5.386;2023-07-31T14:36:53;2.55;;;1.25;;
70806;SDS011;58882;52.170;5.386;2023-07-31T14:39:20;2.72;;;1.40;;
70806;SDS011;58882;52.170;5.386;2023-07-31T14:41:47;3.25;;;1.38;;
70806;SDS011;58882;52.170;5.386;2023-07-31T14:44:14;3.70;;;1.30;;
70806;SDS011;58882;52.170;5.386;2023-07-31T14:46:41;2.45;;;1.30;;
70806;SDS011;58882;52.170;5.386;2023-07-31T14:49:09;2.30;;;1.40;;
70806;SDS011;58882;52.170;5.386;2023-07-31T14:51:36;3.55;;;1.48;;
70806;SDS011;58882;52.170;5.386;2023-07-31T14:54:02;3.33;;;1.65;;
70806;SDS011;58882;52.170;5.386;2023-07-31T14:56:29;4.72;;;1.80;;
70806;SDS011;58882;52.170;5.386;2023-07-31T14:58:57;3.75;;;1.80;;
70806;SDS011;58882;52.170;5.386;2023-07-31T15:01:23;3.88;;;1.90;;
70806;SDS011;58882;52.170;5.386;2023-07-31T15:03:50;4.35;;;2.08;;
70806;SDS011;58882;52.170;5.386;2023-07-31T15:06:17;5.03;;;2.20;;
70806;SDS011;58882;52.170;5.386;2023-07-31T15:08:44;4.07;;;2.17;;
70806;SDS011;58882;52.170;5.386;2023-07-31T15:11:11;7.70;;;2.20;;
70806;SDS011;58882;52.170;5.386;2023-07-31T15:13:38;4.82;;;2.55;;
70806;SDS011;58882;52.170;5.386;2023-07-31T15:16:05;6.07;;;2.40;;
70806;SDS011;58882;52.170;5.386;2023-07-31T15:18:32;5.05;;;2.40;;